Flight Track Log - Related Links

Times and Time Zones

All times are in EDT time to prevent confusion due to time zone crossing. See the LJY228 flight status page for this flight to view local times or setup timezone preferences in your user account.

Time Position Orientation Groundspeed Altitude Reporting Facility
EDT Latitude Longitude Course Direction KTS MPH feet Rate Location/Type
Tue 05:19:41 PM 58.3333 -135.5500 301° West 230 265 8,600  Level Anchorage Center
Tue 05:20:41 PM 58.3000 -135.6667 242° Southwest 270 311 12,400 3,669 Climbing Anchorage Center
Tue 05:21:42 PM 58.3500 -135.8167 302° West 310 357 16,000 3,719 Climbing Anchorage Center
Tue 05:22:42 PM 58.4000 -135.9667 303° West 340 391 19,900 3,300 Climbing Anchorage Center
Tue 05:23:42 PM 58.4667 -136.1167 310° West 370 426 22,600 2,975 Climbing Anchorage Center
Tue 05:24:43 PM 58.5333 -136.2667 310° West 370 426 25,900 3,124 Climbing Anchorage Center
Tue 05:25:00 PM 58.6341 -136.4554 301° West  Level FlightAware Approximate
Tue 05:25:43 PM 58.5833 -136.4167 303° West 380 437 28,900  Level Anchorage Center
Tue 05:26:44 PM 58.6500 -136.5833 308° West 390 449 30,900 1,835 Climbing Anchorage Center
Tue 05:27:44 PM 58.7333 -136.7833 309° West 420 483 32,600 1,500 Climbing Anchorage Center
Tue 05:28:44 PM 58.8000 -136.9333 311° West 430 495 33,900 1,537 Climbing Anchorage Center
Tue 05:29:45 PM 58.8833 -137.1667 305° West 450 518 35,700 1,686 Climbing Anchorage Center
Tue 05:30:45 PM 58.9667 -137.3500 311° West 450 518 37,300 1,650 Climbing Anchorage Center
Tue 05:31:45 PM 59.0500 -137.5500 309° West 440 506 39,000 1,339 Climbing Anchorage Center
Tue 05:32:46 PM 59.1167 -137.7333 305° West 440 506 40,000 496 Climbing Anchorage Center
Tue 05:33:46 PM 59.2000 -137.9333 309° West 450 518 40,000  Level Anchorage Center
Tue 05:34:46 PM 59.2667 -138.1333 303° West 460 529 40,000  Level Anchorage Center
Tue 05:35:47 PM 59.3500 -138.3333 309° West 460 529 40,000  Level Anchorage Center
Tue 05:36:47 PM 59.4167 -138.5333 303° West 450 518 40,000  Level Anchorage Center
Tue 05:37:47 PM 59.5000 -138.7167 312° West 450 518 40,000  Level Anchorage Center
Tue 05:38:48 PM 59.5667 -138.9167 303° West 440 506 40,000  Level Anchorage Center
Tue 05:39:48 PM 59.6500 -139.1167 310° West 460 529 40,000  Level Anchorage Center
Tue 05:40:48 PM 59.7167 -139.3333 301° West 470 541 40,000  Level Anchorage Center
Tue 05:41:49 PM 59.8000 -139.5500 307° West 490 564 40,000  Level Anchorage Center
Tue 05:42:49 PM 59.8833 -139.7667 308° West 480 552 40,000  Level Anchorage Center
Tue 05:43:49 PM 59.9500 -139.9833 302° West 470 541 40,000  Level Anchorage Center
Tue 05:44:49 PM 60.0333 -140.1833 310° West 480 552 40,000  Level Anchorage Center
Tue 05:45:50 PM 60.1000 -140.4000 302° West 470 541 40,000  Level Anchorage Center
Tue 05:46:50 PM 60.1833 -140.6167 308° West 470 541 40,000  Level Anchorage Center
Tue 05:47:50 PM 60.2500 -140.8333 302° West 470 541 40,000  Level Anchorage Center
Tue 05:48:51 PM 60.3333 -141.0667 306° West 480 552 40,000  Level Anchorage Center
Tue 05:49:51 PM 60.4000 -141.2833 302° West 470 541 40,000  Level Anchorage Center
Tue 05:50:51 PM 60.4833 -141.5000 308° West 470 541 40,000  Level Anchorage Center
Tue 05:51:52 PM 60.5500 -141.7167 302° West 470 541 40,000  Level Anchorage Center
Tue 05:52:52 PM 60.6333 -141.9500 306° West 470 541 40,000  Level Anchorage Center
Tue 05:53:53 PM 60.7000 -142.1667 302° West 470 541 40,000  Level Anchorage Center
Tue 05:54:53 PM 60.7667 -142.4000 300° West 470 541 40,000  Level Anchorage Center
Tue 05:55:53 PM 60.8333 -142.6167 302° West 460 529 40,000  Level Anchorage Center
Tue 05:56:54 PM 60.9167 -142.8333 308° West 460 529 40,000  Level Anchorage Center
Tue 05:57:54 PM 60.9833 -143.0667 301° West 460 529 40,000  Level Anchorage Center
Tue 05:58:54 PM 61.0500 -143.2833 303° West 460 529 40,000  Level Anchorage Center
Tue 05:59:55 PM 61.1333 -143.5500 303° West 460 529 40,000  Level Anchorage Center
Tue 06:00:55 PM 61.2000 -143.7667 303° West 460 529 40,000  Level Anchorage Center
Tue 06:01:56 PM 61.2667 -144.0000 301° West 460 529 40,000  Level Anchorage Center
Tue 06:02:56 PM 61.3333 -144.2333 301° West 470 541 40,000  Level Anchorage Center
Tue 06:03:56 PM 61.4000 -144.4667 301° West 480 552 40,000  Level Anchorage Center
Tue 06:04:56 PM 61.4667 -144.6833 303° West 460 529 40,000  Level Anchorage Center
Tue 06:05:56 PM 61.5333 -144.9167 301° West 470 541 40,000  Level Anchorage Center
Tue 06:06:57 PM 61.6000 -145.1667 299° West 470 541 40,000  Level Anchorage Center
Tue 06:07:57 PM 61.6667 -145.4000 301° West 460 529 40,000  Level Anchorage Center
Tue 06:08:57 PM 61.7333 -145.6167 303° West 460 529 40,000  Level Anchorage Center
Tue 06:10:00 PM 61.8160 -145.8101 299° West  Level FlightAware Approximate
Tue 06:10:58 PM 61.8667 -146.1000 299° West 460 529 40,000  Level Anchorage Center
Tue 06:11:58 PM 61.9333 -146.3333 301° West 460 529 40,000  Level Anchorage Center
Tue 06:12:59 PM 61.9833 -146.5833 293° West 460 529 40,000  Level Anchorage Center
Tue 06:13:59 PM 62.0500 -146.8167 301° West 460 529 40,000  Level Anchorage Center
Tue 06:14:59 PM 62.1167 -147.0667 300° West 460 529 40,000 -149 Level Anchorage Center
Tue 06:16:00 PM 62.1833 -147.3167 300° West 460 529 39,700 -694 Descending Anchorage Center
Tue 06:17:00 PM 62.2500 -147.5500 302° West 470 541 38,600 -1,150 Descending Anchorage Center
Tue 06:18:00 PM 62.3167 -147.8000 300° West 460 529 37,400 -1,289 Descending Anchorage Center
Tue 06:19:01 PM 62.3667 -148.0333 295° West 460 529 36,000 -1,438 Descending Anchorage Center
Tue 06:20:01 PM 62.4333 -148.2833 300° West 450 518 34,500 -1,550 Descending Anchorage Center
Tue 06:21:01 PM 62.4833 -148.5167 295° West 460 529 32,900 -1,492 Descending Anchorage Center
Tue 06:23:02 PM 62.6167 -149.0333 299° West 470 541 30,000 -961 Descending Anchorage Center
Tue 06:24:02 PM 62.6667 -149.2667 295° West 460 529 30,000  Level Anchorage Center
Tue 06:25:03 PM 62.7333 -149.5167 300° West 460 529 30,000  Level Anchorage Center
Tue 06:26:03 PM 62.7500 -149.7833 278° West 520 598 30,000  Level Anchorage Center
Tue 06:27:03 PM 62.7000 -150.0500 248° West 470 541 30,000  Level Anchorage Center
Tue 06:28:03 PM 62.6500 -150.3000 247° West 440 506 30,000  Level Anchorage Center
Tue 06:29:04 PM 62.6333 -150.5667 262° West 450 518 30,000  Level Anchorage Center
Tue 06:30:04 PM 62.6667 -150.8333 285° West 470 541 30,000  Level Anchorage Center
Tue 06:31:04 PM 62.7333 -151.0833 300° West 460 529 30,000  Level Anchorage Center
Tue 06:32:05 PM 62.8000 -151.3000 304° West 470 541 30,000  Level Anchorage Center
Tue 06:33:05 PM 62.9000 -151.5000 318° Northwest 450 518 30,000  Level Anchorage Center
Tue 06:34:06 PM 63.0000 -151.6333 329° Northwest 480 552 30,000  Level Anchorage Center
Tue 06:35:06 PM 63.1167 -151.5833 11° North 440 506 30,000  Level Anchorage Center
Tue 06:36:06 PM 63.2167 -151.4833 24° Northeast 430 495 30,000  Level Anchorage Center
Tue 06:37:07 PM 63.3000 -151.2833 47° Northeast 430 495 30,000  Level Anchorage Center
Tue 06:38:07 PM 63.3000 -151.0167 90° East 400 460 30,000  Level Anchorage Center
Tue 06:39:07 PM 63.2333 -150.8167 126° Southeast 410 472 30,000  Level Anchorage Center
Tue 06:40:08 PM 63.1333 -150.6667 146° Southeast 460 529 30,000  Level Anchorage Center
Tue 06:41:08 PM 63.0167 -150.6667 180° South 440 506 30,000  Level Anchorage Center
Tue 06:42:08 PM 62.8833 -150.7000 187° South 460 529 30,000  Level Anchorage Center
Tue 06:43:09 PM 62.7500 -150.7333 187° South 450 518 30,000  Level Anchorage Center
Tue 06:44:09 PM 62.6167 -150.7667 187° South 460 529 30,000  Level Anchorage Center
Tue 06:45:09 PM 62.5000 -150.7833 184° South 460 529 30,000  Level Anchorage Center
Tue 06:46:10 PM 62.3667 -150.8167 187° South 450 518 30,000 -99 Level Anchorage Center
Tue 06:47:10 PM 62.2500 -150.8500 188° South 450 518 29,800 -1,250 Descending Anchorage Center
Tue 06:48:10 PM 62.1167 -150.8833 187° South 460 529 27,500 -2,000 Descending Anchorage Center
Tue 06:49:10 PM 61.9833 -150.9167 187° South 440 506 25,800 -1,983 Descending Anchorage Center
Tue 06:50:11 PM 61.8833 -150.9333 184° South 400 460 23,500 -2,083 Descending Anchorage Center
Tue 06:51:11 PM 61.7833 -150.9667 189° South 370 426 21,600 -2,000 Descending Anchorage Center
Tue 06:52:11 PM 61.6833 -150.9833 185° South 370 426 19,500 -1,884 Descending Anchorage Center
Tue 06:53:12 PM 61.5833 -151.0167 189° South 360 414 17,800 -1,736 Descending Anchorage Center
Tue 06:54:12 PM 61.4833 -151.0333 185° South 350 403 16,000 -1,850 Descending Anchorage Center
Tue 06:55:12 PM 61.3833 -151.0500 185° South 340 391 14,100 -1,884 Descending Anchorage Center
Tue 06:56:13 PM 61.2833 -151.0667 185° South 320 368 12,200 -1,983 Descending Anchorage Center
Tue 06:57:13 PM 61.1833 -151.0667 180° South 300 345 10,100 -1,200 Descending Anchorage Center
Tue 06:58:13 PM 61.1000 -151.0667 180° South 290 334 9,800 -595 Descending Anchorage Center
Tue 06:59:14 PM 61.0333 -151.0667 180° South 270 311 8,900 -1,438 Descending Anchorage Center
Tue 07:00:14 PM 60.9500 -151.0500 174° South 270 311 6,900 -1,884 Descending Anchorage Center
Tue 07:01:15 PM 60.8833 -151.0500 180° South 260 299 5,100 -1,587 Descending Anchorage Center
Tue 07:02:15 PM 60.8167 -151.0500 180° South 230 265 3,700 -1,200 Descending Anchorage Center
Tue 07:03:15 PM 60.7500 -151.0500 180° South 210 242 2,700 -793 Descending Anchorage Center
Tue 07:04:16 PM 60.7000 -151.0667 189° South 170 196 2,100 -350 Descending Anchorage Center
Tue 07:05:15 PM 60.6667 -151.1167 216° Southwest 170 196 2,000 -350 Descending Anchorage Center
Tue 07:06:16 PM 60.6333 -151.1667 216° Southwest 120 138 1,400 -645 Descending Anchorage Center
Tue 07:07:16 PM 60.6000 -151.2000 206° Southwest 120 138 700 -650 Descending Anchorage Center
Tue 07:08:16 PM 60.5667 -151.2333 206° Southwest 110 127 100 -600 Descending Anchorage Center
Tue 07:10:00 PM 60.5733 -151.2448 206° Southwest  Level Estimated
Tue 07:17:00 PM 60.5733 -151.2448 206° Southwest  Level Estimated
Tue 07:18:00 PM 60.5733 -151.2448 206° Southwest  Level Estimated
Tue 07:19:00 PM 60.5733 -151.2448 206° Southwest  Level Estimated
Tue 07:20:00 PM 60.5733 -151.2448 206° Southwest  Level Estimated

Login

Don't have an account? Register now (free) for customized features, flight alerts, and more!